createdAt,value
2022-09-17T00:01:23.096Z,1.30
2022-09-17T00:03:56.693Z,2.00
2022-09-17T00:06:25.507Z,1.90
2022-09-17T00:08:54.012Z,1.73
2022-09-17T00:11:29.985Z,1.77
2022-09-17T00:14:00.134Z,1.48
2022-09-17T00:16:35.200Z,1.90
2022-09-17T00:19:05.444Z,2.00
2022-09-17T00:21:32.804Z,1.83
2022-09-17T00:24:04.514Z,1.85
2022-09-17T00:26:33.353Z,1.98
2022-09-17T00:29:01.808Z,1.67
2022-09-17T00:31:30.464Z,2.28
2022-09-17T00:34:00.173Z,1.85
2022-09-17T00:36:27.668Z,1.70
2022-09-17T00:38:58.447Z,2.00
2022-09-17T00:41:30.276Z,2.40
2022-09-17T00:44:40.236Z,1.95
2022-09-17T00:47:25.119Z,2.08
2022-09-17T00:49:57.872Z,2.88
2022-09-17T00:52:34.458Z,1.90
2022-09-17T00:55:25.593Z,2.03
2022-09-17T00:57:56.567Z,1.77
2022-09-17T01:00:23.469Z,2.22
2022-09-17T01:02:53.710Z,2.13
2022-09-17T01:05:43.677Z,2.15
2022-09-17T01:08:45.296Z,2.08
2022-09-17T01:11:51.036Z,1.90
2022-09-17T01:14:29.789Z,2.00
2022-09-17T01:17:34.284Z,1.70
2022-09-17T01:20:20.533Z,2.10
2022-09-17T01:23:22.047Z,2.50
2022-09-17T01:26:16.443Z,2.20
2022-09-17T01:29:06.947Z,2.28
2022-09-17T01:31:49.671Z,1.80
2022-09-17T01:34:58.192Z,1.80
2022-09-17T01:37:36.475Z,1.60
2022-09-17T01:40:32.522Z,1.90
2022-09-17T01:43:14.205Z,1.60
2022-09-17T01:45:47.793Z,2.00
2022-09-17T01:48:23.476Z,1.80
2022-09-17T01:51:10.241Z,2.10
2022-09-17T01:53:46.200Z,1.90
2022-09-17T01:56:18.338Z,1.80
2022-09-17T01:59:07.998Z,1.58
2022-09-17T02:01:38.328Z,1.77
2022-09-17T02:04:13.475Z,1.85
2022-09-17T02:06:46.498Z,1.85
2022-09-17T02:09:35.651Z,1.98
2022-09-17T02:12:10.827Z,1.90
2022-09-17T02:14:45.128Z,2.17
2022-09-17T02:17:35.864Z,1.80
2022-09-17T02:20:04.211Z,2.10
2022-09-17T02:22:51.722Z,1.90
2022-09-17T02:25:37.645Z,1.67
2022-09-17T02:28:26.867Z,2.03
2022-09-17T02:30:54.585Z,2.20
2022-09-17T02:33:22.956Z,2.03
2022-09-17T02:35:50.046Z,2.08
2022-09-17T02:38:25.992Z,1.90
2022-09-17T02:41:26.309Z,2.15
2022-09-17T02:44:19.467Z,2.25
2022-09-17T02:47:27.759Z,2.25
2022-09-17T02:52:57.934Z,2.83
2022-09-17T02:56:01.884Z,2.10
2022-09-17T02:58:37.296Z,2.13
2022-09-17T03:01:12.581Z,2.97
2022-09-17T03:03:43.820Z,2.28
2022-09-17T03:06:10.905Z,2.22
2022-09-17T03:08:41.368Z,2.67
2022-09-17T03:11:12.859Z,2.17
2022-09-17T03:13:40.158Z,3.25
2022-09-17T03:16:07.858Z,4.22
2022-09-17T03:18:35.355Z,2.10
2022-09-17T03:21:02.375Z,2.80
2022-09-17T03:23:29.446Z,2.05
2022-09-17T03:25:56.366Z,1.98
2022-09-17T03:28:23.317Z,2.35
2022-09-17T03:30:50.218Z,2.45
2022-09-17T03:33:17.245Z,2.47
2022-09-17T03:35:45.214Z,2.53
2022-09-17T03:38:13.345Z,3.00
2022-09-17T03:40:40.600Z,2.58
2022-09-17T03:43:07.650Z,3.38
2022-09-17T03:45:34.566Z,2.08
2022-09-17T03:48:01.739Z,2.78
2022-09-17T03:50:28.637Z,2.05
2022-09-17T03:52:55.549Z,1.98
2022-09-17T03:55:22.372Z,2.10
2022-09-17T03:57:49.510Z,2.28
2022-09-17T04:00:17.428Z,2.22
2022-09-17T04:02:44.497Z,3.25
2022-09-17T04:05:11.657Z,2.25
2022-09-17T04:07:41.219Z,2.28
2022-09-17T04:10:09.063Z,2.40
2022-09-17T04:12:36.130Z,2.25
2022-09-17T04:15:04.149Z,2.38
2022-09-17T04:17:31.013Z,4.03
2022-09-17T04:19:58.394Z,2.20
2022-09-17T04:22:26.535Z,2.33
2022-09-17T04:24:53.404Z,2.30
2022-09-17T04:27:20.253Z,2.40
2022-09-17T04:29:47.295Z,2.25
2022-09-17T04:32:14.245Z,3.05
2022-09-17T04:34:41.402Z,2.42
2022-09-17T04:37:08.330Z,2.50
2022-09-17T04:39:35.692Z,1.88
2022-09-17T04:42:02.728Z,2.55
2022-09-17T04:44:29.565Z,2.85
2022-09-17T04:46:56.803Z,1.73
2022-09-17T04:49:23.921Z,2.05
2022-09-17T04:51:50.983Z,3.00
2022-09-17T04:54:17.824Z,2.17
2022-09-17T04:56:44.785Z,2.17
2022-09-17T04:59:11.736Z,3.78
2022-09-17T05:01:38.597Z,2.63
2022-09-17T05:04:05.735Z,3.00
2022-09-17T05:06:32.624Z,2.08
2022-09-17T05:09:00.067Z,2.40
2022-09-17T05:11:27.082Z,2.50
2022-09-17T05:13:54.132Z,2.38
2022-09-17T05:16:21.051Z,2.55
2022-09-17T05:18:49.470Z,2.10
2022-09-17T05:21:16.721Z,1.98
2022-09-17T05:23:43.708Z,1.98
2022-09-17T05:26:11.253Z,2.38
2022-09-17T05:28:38.249Z,2.55
2022-09-17T05:31:05.363Z,2.20
2022-09-17T05:33:32.349Z,2.17
2022-09-17T05:36:00.039Z,2.40
2022-09-17T05:38:26.828Z,2.88
2022-09-17T05:40:53.919Z,2.30
2022-09-17T05:43:20.862Z,2.53
2022-09-17T05:45:48.165Z,2.72
2022-09-17T05:48:15.944Z,2.38
2022-09-17T05:50:42.840Z,2.58
2022-09-17T05:53:13.969Z,1.92
2022-09-17T05:55:40.999Z,2.33
2022-09-17T05:58:17.742Z,2.17
2022-09-17T06:00:46.529Z,2.88
2022-09-17T06:03:16.302Z,3.28
2022-09-17T06:05:44.582Z,2.30
2022-09-17T06:08:11.608Z,2.70
2022-09-17T06:10:40.060Z,2.53
2022-09-17T06:13:06.989Z,2.60
2022-09-17T06:15:33.953Z,2.40
2022-09-17T06:18:01.029Z,3.38
2022-09-17T06:20:28.082Z,2.90
2022-09-17T06:22:58.814Z,2.75
2022-09-17T06:25:29.543Z,2.58
2022-09-17T06:27:56.453Z,2.53
2022-09-17T06:30:23.528Z,3.08
2022-09-17T06:32:50.309Z,2.85
2022-09-17T06:35:20.483Z,3.40
2022-09-17T06:37:47.614Z,2.67
2022-09-17T06:40:15.435Z,3.75
2022-09-17T06:42:42.748Z,3.70
2022-09-17T06:45:14.451Z,4.25
2022-09-17T06:47:43.818Z,3.22
2022-09-17T06:50:11.023Z,3.95
2022-09-17T06:52:38.557Z,3.47
2022-09-17T06:55:06.029Z,3.78
2022-09-17T06:57:32.904Z,3.65
2022-09-17T06:59:59.874Z,4.03
2022-09-17T07:02:27.097Z,4.18
2022-09-17T07:04:55.116Z,3.83
2022-09-17T07:07:21.938Z,4.85
2022-09-17T07:09:53.576Z,4.25
2022-09-17T07:12:21.910Z,4.65
2022-09-17T07:14:48.912Z,3.80
2022-09-17T07:17:16.209Z,4.18
2022-09-17T07:19:43.625Z,4.18
2022-09-17T07:22:10.589Z,3.70
2022-09-17T07:24:37.964Z,3.20
2022-09-17T07:27:05.070Z,3.50
2022-09-17T07:29:32.614Z,3.42
2022-09-17T07:31:59.745Z,3.92
2022-09-17T07:34:29.177Z,4.07
2022-09-17T07:36:56.073Z,3.45
2022-09-17T07:39:23.130Z,4.05
2022-09-17T07:41:50.360Z,4.45
2022-09-17T07:44:22.460Z,5.25
2022-09-17T07:46:50.447Z,3.75
2022-09-17T07:49:17.317Z,3.47
2022-09-17T07:51:46.676Z,4.05
2022-09-17T07:54:13.838Z,2.83
2022-09-17T07:56:41.848Z,3.22
2022-09-17T07:59:10.181Z,3.38
2022-09-17T08:01:37.153Z,4.10
2022-09-17T08:04:05.119Z,3.20
2022-09-17T08:06:37.411Z,3.63
2022-09-17T08:09:04.664Z,2.90
2022-09-17T08:11:56.046Z,3.15
2022-09-17T08:14:19.466Z,4.38
2022-09-17T08:16:47.373Z,2.70
2022-09-17T08:19:14.423Z,3.17
2022-09-17T08:21:41.840Z,2.70
2022-09-17T08:24:09.171Z,2.45
2022-09-17T08:26:36.104Z,2.95
2022-09-17T08:29:03.260Z,2.80
2022-09-17T08:31:30.926Z,3.08
2022-09-17T08:33:58.111Z,2.90
2022-09-17T08:36:26.450Z,3.42
2022-09-17T08:38:55.409Z,2.55
2022-09-17T08:41:40.504Z,2.97
2022-09-17T08:44:35.765Z,3.15
2022-09-17T08:47:28.598Z,3.97
2022-09-17T08:49:59.530Z,3.03
2022-09-17T08:52:36.743Z,2.45
2022-09-17T08:55:15.194Z,2.60
2022-09-17T08:58:09.927Z,2.45
2022-09-17T09:00:46.381Z,2.05
2022-09-17T09:03:45.167Z,2.45
2022-09-17T09:06:13.733Z,2.47
2022-09-17T09:08:51.756Z,2.30
2022-09-17T09:11:28.253Z,2.45
2022-09-17T09:14:26.556Z,1.88
2022-09-17T09:16:55.493Z,1.70
2022-09-17T09:19:24.533Z,2.58
2022-09-17T09:22:17.980Z,2.53
2022-09-17T09:25:25.610Z,1.90
2022-09-17T09:28:10.910Z,1.95
2022-09-17T09:31:27.872Z,2.47
2022-09-17T09:33:56.447Z,1.80
2022-09-17T09:36:28.537Z,2.58
2022-09-17T09:39:01.990Z,2.45
2022-09-17T09:41:40.416Z,1.98
2022-09-17T09:44:14.173Z,1.70
2022-09-17T09:46:51.495Z,2.22
2022-09-17T09:49:44.218Z,2.25
2022-09-17T09:53:21.012Z,2.10
2022-09-17T09:56:11.437Z,1.85
2022-09-17T09:58:40.801Z,2.33
2022-09-17T10:01:23.077Z,1.65
2022-09-17T10:03:54.130Z,1.50
2022-09-17T10:06:21.212Z,2.85
2022-09-17T10:08:57.117Z,1.67
2022-09-17T10:11:33.093Z,1.83
2022-09-17T10:14:24.338Z,1.77
2022-09-17T10:17:17.041Z,1.73
2022-09-17T10:19:46.218Z,2.13
2022-09-17T10:22:34.599Z,1.60
2022-09-17T10:25:03.942Z,1.65
2022-09-17T10:27:31.170Z,2.25
2022-09-17T10:30:17.025Z,1.75
2022-09-17T10:32:44.721Z,1.70
2022-09-17T10:35:18.508Z,2.00
2022-09-17T10:37:49.042Z,1.60
2022-09-17T10:40:19.294Z,2.17
2022-09-17T10:42:50.370Z,1.58
2022-09-17T10:45:39.511Z,1.63
2022-09-17T10:48:20.648Z,1.65
2022-09-17T10:50:56.410Z,1.95
2022-09-17T10:53:26.447Z,1.45
2022-09-17T10:56:21.922Z,1.38
2022-09-17T11:02:50.910Z,1.92
2022-09-17T11:06:03.527Z,1.98
2022-09-17T11:08:57.484Z,1.83
2022-09-17T11:12:04.960Z,2.05
2022-09-17T11:14:58.905Z,2.00
2022-09-17T11:18:06.036Z,1.48
2022-09-17T11:21:04.101Z,1.42
2022-09-17T11:24:07.252Z,1.77
2022-09-17T11:27:47.743Z,1.83
2022-09-17T11:30:18.155Z,1.80
2022-09-17T11:33:02.705Z,1.42
2022-09-17T11:35:38.378Z,1.33
2022-09-17T11:38:25.297Z,1.40
2022-09-17T11:41:19.773Z,1.48
2022-09-17T11:44:32.315Z,3.65
2022-09-17T11:47:32.773Z,2.05
2022-09-17T11:50:29.596Z,1.35
2022-09-17T11:53:32.273Z,1.25
2022-09-17T11:56:23.017Z,1.77
2022-09-17T11:59:15.304Z,1.10
2022-09-17T12:02:04.766Z,1.30
2022-09-17T12:04:44.045Z,1.50
2022-09-17T12:07:33.790Z,1.63
2022-09-17T12:10:33.075Z,1.10
2022-09-17T12:13:17.391Z,0.95
2022-09-17T12:15:55.593Z,1.10
2022-09-17T12:18:42.695Z,1.20
2022-09-17T12:21:17.906Z,1.10
2022-09-17T12:23:54.371Z,1.33
2022-09-17T12:26:38.586Z,0.98
2022-09-17T12:29:32.754Z,0.88
2022-09-17T12:32:39.402Z,1.38
2022-09-17T12:36:04.433Z,1.90
2022-09-17T12:39:00.668Z,1.17
2022-09-17T12:41:47.155Z,1.25
2022-09-17T12:44:29.127Z,1.33
2022-09-17T12:47:29.569Z,1.23
2022-09-17T12:50:04.901Z,0.80
2022-09-17T12:53:11.817Z,1.08
2022-09-17T12:56:06.267Z,1.00
2022-09-17T12:59:10.813Z,1.08
2022-09-17T13:02:00.100Z,1.08
2022-09-17T13:05:00.525Z,0.77
2022-09-17T13:07:53.664Z,1.10
2022-09-17T13:11:21.225Z,1.33
2022-09-17T13:14:29.314Z,1.37
2022-09-17T13:17:06.158Z,1.52
2022-09-17T13:19:46.994Z,1.02
2022-09-17T13:22:19.685Z,1.75
2022-09-17T13:25:00.532Z,1.25
2022-09-17T13:27:29.100Z,1.60
2022-09-17T13:29:56.022Z,0.95
2022-09-17T13:32:34.976Z,0.90
2022-09-17T13:35:13.600Z,0.68
2022-09-17T13:37:53.903Z,1.20
2022-09-17T13:40:32.429Z,1.17
2022-09-17T13:43:07.320Z,0.80
2022-09-17T13:46:14.297Z,1.10
2022-09-17T13:48:51.689Z,1.17
2022-09-17T13:51:30.913Z,1.02
2022-09-17T13:54:10.511Z,1.20
2022-09-17T13:56:45.966Z,1.23
2022-09-17T13:59:19.579Z,1.27
2022-09-17T14:01:59.111Z,1.25
2022-09-17T14:04:41.115Z,0.98
2022-09-17T14:07:29.077Z,1.40
2022-09-17T14:10:01.659Z,1.58
2022-09-17T14:12:50.767Z,1.27
2022-09-17T14:15:43.647Z,1.00
2022-09-17T14:18:28.863Z,1.45
2022-09-17T14:21:06.612Z,1.25
2022-09-17T14:23:46.611Z,1.80
2022-09-17T14:26:41.569Z,1.77
2022-09-17T14:29:43.633Z,1.10
2022-09-17T14:32:45.338Z,1.30
2022-09-17T14:35:20.464Z,1.15
2022-09-17T14:37:54.093Z,1.23
2022-09-17T14:40:24.095Z,1.35
2022-09-17T14:42:55.843Z,1.15
2022-09-17T14:45:41.820Z,1.40
2022-09-17T14:48:34.172Z,1.20
2022-09-17T14:51:22.241Z,1.35
2022-09-17T14:54:23.676Z,0.93
2022-09-17T14:57:00.969Z,0.95
2022-09-17T14:59:57.799Z,1.02
2022-09-17T15:02:46.130Z,1.42
2022-09-17T15:05:19.534Z,1.13
2022-09-17T15:07:47.286Z,0.80
2022-09-17T15:10:19.517Z,0.93
2022-09-17T15:12:48.369Z,1.02
2022-09-17T15:15:22.859Z,1.27
2022-09-17T15:17:51.463Z,0.63
2022-09-17T15:20:31.226Z,0.60
2022-09-17T15:23:24.426Z,0.70
2022-09-17T15:25:55.382Z,0.43
2022-09-17T15:28:49.538Z,0.40
2022-09-17T15:31:19.546Z,0.47
2022-09-17T15:33:47.453Z,0.30
2022-09-17T15:36:27.388Z,0.60
2022-09-17T15:38:54.835Z,0.25
2022-09-17T15:41:24.771Z,0.50
2022-09-17T15:43:51.953Z,0.60
2022-09-17T15:46:31.449Z,0.52
2022-09-17T15:49:00.911Z,0.32
2022-09-17T15:51:34.472Z,0.45
2022-09-17T15:54:05.603Z,0.30
2022-09-17T15:56:41.350Z,0.43
2022-09-17T15:59:30.415Z,0.32
2022-09-17T16:02:00.306Z,0.52
2022-09-17T16:04:33.803Z,0.63
2022-09-17T16:07:12.545Z,0.60
2022-09-17T16:09:52.006Z,0.60
2022-09-17T16:12:25.991Z,0.55
2022-09-17T16:14:59.831Z,0.73
2022-09-17T16:18:01.703Z,0.50
2022-09-17T16:20:30.001Z,0.63
2022-09-17T16:22:57.255Z,0.60
2022-09-17T16:25:26.110Z,0.50
2022-09-17T16:27:59.892Z,0.52
2022-09-17T16:30:27.029Z,0.77
2022-09-17T16:32:54.824Z,0.65
2022-09-17T16:35:25.713Z,0.70
2022-09-17T16:37:55.465Z,0.55
2022-09-17T16:40:24.759Z,0.73
2022-09-17T16:42:51.713Z,0.63
2022-09-17T16:45:19.219Z,0.75
2022-09-17T16:47:46.220Z,1.45
2022-09-17T16:50:16.357Z,1.00
2022-09-17T16:52:44.621Z,0.77
2022-09-17T16:55:16.702Z,0.80
2022-09-17T16:58:08.932Z,0.63
2022-09-17T17:00:37.283Z,0.75
2022-09-17T17:03:05.222Z,0.70
2022-09-17T17:05:36.446Z,0.50
2022-09-17T17:08:06.571Z,0.63
2022-09-17T17:10:34.945Z,0.80
2022-09-17T17:13:02.288Z,0.40
2022-09-17T17:15:30.333Z,0.75
2022-09-17T17:17:57.565Z,0.68
2022-09-17T17:20:24.942Z,0.90
2022-09-17T17:22:55.308Z,0.68
2022-09-17T17:25:23.662Z,0.70
2022-09-17T17:27:50.881Z,0.50
2022-09-17T17:30:18.556Z,0.88
2022-09-17T17:33:10.980Z,0.98
2022-09-17T17:35:39.705Z,0.63
2022-09-17T17:38:06.585Z,0.45
2022-09-17T17:40:34.248Z,0.52
2022-09-17T17:43:01.272Z,0.77
2022-09-17T17:45:28.583Z,0.93
2022-09-17T17:47:55.534Z,0.70
2022-09-17T17:50:22.494Z,0.80
2022-09-17T17:52:49.664Z,0.80
2022-09-17T17:55:17.043Z,1.08
2022-09-17T17:57:43.976Z,1.00
2022-09-17T18:00:11.983Z,0.88
2022-09-17T18:02:40.158Z,0.47
2022-09-17T18:05:07.610Z,0.60
2022-09-17T18:07:34.647Z,0.88
2022-09-17T18:10:01.736Z,0.70
2022-09-17T18:12:28.668Z,0.65
2022-09-17T18:14:55.918Z,0.75
2022-09-17T18:17:22.822Z,0.43
2022-09-17T18:19:51.563Z,0.57
2022-09-17T18:22:18.562Z,0.73
2022-09-17T18:24:45.411Z,0.50
2022-09-17T18:27:12.241Z,0.60
2022-09-17T18:29:39.213Z,0.98
2022-09-17T18:32:06.546Z,0.45
2022-09-17T18:34:33.631Z,0.52
2022-09-17T18:37:00.528Z,1.00
2022-09-17T18:44:41.414Z,0.70
2022-09-17T18:47:08.746Z,1.00
2022-09-17T18:49:35.731Z,0.88
2022-09-17T18:52:02.907Z,1.10
2022-09-17T18:54:29.892Z,0.73
2022-09-17T18:56:57.575Z,1.02
2022-09-17T18:59:24.500Z,1.00
2022-09-17T19:01:51.639Z,0.93
2022-09-17T19:04:18.880Z,0.90
2022-09-17T19:06:45.901Z,1.00
2022-09-17T19:09:12.800Z,1.05
2022-09-17T19:11:39.599Z,1.00
2022-09-17T19:14:10.139Z,0.65
2022-09-17T19:16:37.160Z,0.85
2022-09-17T19:19:04.506Z,1.10
2022-09-17T19:21:31.583Z,0.60
2022-09-17T19:23:58.651Z,0.80
2022-09-17T19:26:27.527Z,0.80
2022-09-17T19:29:02.848Z,1.00
2022-09-17T19:31:29.900Z,0.57
2022-09-17T19:33:58.775Z,0.52
2022-09-17T19:36:26.239Z,0.80
2022-09-17T19:38:53.979Z,0.93
2022-09-17T19:41:25.674Z,1.00
2022-09-17T19:43:54.948Z,0.85
2022-09-17T19:46:24.731Z,0.70
2022-09-17T19:48:54.579Z,0.90
2022-09-17T19:51:24.341Z,0.95
2022-09-17T19:53:52.275Z,0.68
2022-09-17T19:56:22.922Z,1.05
2022-09-17T19:58:50.451Z,0.95
2022-09-17T20:01:18.486Z,0.93
2022-09-17T20:03:46.130Z,1.00
2022-09-17T20:06:17.060Z,0.70
2022-09-17T20:08:52.497Z,0.75
2022-09-17T20:11:22.580Z,1.17
2022-09-17T20:13:49.746Z,0.90
2022-09-17T20:16:21.897Z,0.90
2022-09-17T20:18:49.737Z,1.05
2022-09-17T20:21:26.135Z,0.90
2022-09-17T20:23:53.179Z,1.27
2022-09-17T20:26:27.292Z,0.98
2022-09-17T20:28:57.262Z,1.23
2022-09-17T20:31:27.628Z,1.10
2022-09-17T20:33:57.307Z,1.40
2022-09-17T20:36:27.970Z,1.20
2022-09-17T20:39:11.473Z,0.90
2022-09-17T20:41:40.541Z,0.80
2022-09-17T20:44:09.228Z,1.17
2022-09-17T20:46:36.331Z,1.30
2022-09-17T20:49:03.822Z,1.52
2022-09-17T20:51:32.677Z,1.30
2022-09-17T20:54:01.401Z,1.50
2022-09-17T20:56:33.292Z,1.50
2022-09-17T20:59:19.213Z,1.70
2022-09-17T21:01:53.494Z,1.30
2022-09-17T21:04:21.751Z,1.38
2022-09-17T21:06:52.888Z,1.17
2022-09-17T21:09:20.291Z,1.33
2022-09-17T21:11:49.261Z,2.30
2022-09-17T21:14:17.915Z,1.45
2022-09-17T21:16:46.417Z,1.27
2022-09-17T21:19:15.928Z,1.05
2022-09-17T21:21:48.047Z,1.33
2022-09-17T21:24:14.966Z,1.85
2022-09-17T21:26:41.962Z,1.50
2022-09-17T21:29:08.902Z,1.38
2022-09-17T21:31:37.372Z,1.33
2022-09-17T21:34:07.737Z,1.83
2022-09-17T21:36:38.538Z,1.67
2022-09-17T21:39:11.621Z,1.80
2022-09-17T21:41:42.352Z,1.73
2022-09-17T21:44:11.890Z,2.42
2022-09-17T21:46:40.411Z,2.00
2022-09-17T21:49:07.680Z,5.22
2022-09-17T21:51:39.465Z,3.00
2022-09-17T21:54:20.346Z,1.95
2022-09-17T21:56:47.263Z,1.95
2022-09-17T21:59:16.373Z,1.77
2022-09-17T22:01:47.996Z,1.85
2022-09-17T22:04:18.738Z,1.85
2022-09-17T22:06:47.716Z,1.85
2022-09-17T22:09:22.161Z,1.90
2022-09-17T22:11:49.714Z,2.08
2022-09-17T22:14:19.967Z,2.83
2022-09-17T22:16:53.527Z,1.98
2022-09-17T22:19:22.263Z,1.73
2022-09-17T22:21:52.366Z,1.58
2022-09-17T22:24:22.214Z,1.38
2022-09-17T22:26:57.851Z,1.60
2022-09-17T22:29:28.332Z,1.30
2022-09-17T22:31:55.397Z,1.63
2022-09-17T22:34:23.578Z,1.65
2022-09-17T22:36:53.263Z,1.45
2022-09-17T22:39:26.832Z,1.52
2022-09-17T22:41:54.558Z,3.22
2022-09-17T22:44:21.771Z,1.92
2022-09-17T22:46:51.633Z,2.05
2022-09-17T22:49:19.584Z,1.67
2022-09-17T22:51:47.203Z,1.67
2022-09-17T22:54:16.919Z,1.65
2022-09-17T22:56:45.195Z,1.90
2022-09-17T22:59:12.355Z,1.65
2022-09-17T23:01:40.754Z,1.70
2022-09-17T23:04:08.201Z,1.77
2022-09-17T23:06:38.720Z,2.38
2022-09-17T23:09:06.080Z,1.95
2022-09-17T23:11:39.179Z,1.83
2022-09-17T23:14:11.017Z,1.73
2022-09-17T23:16:42.498Z,1.60
2022-09-17T23:19:10.264Z,1.65
2022-09-17T23:21:38.387Z,1.80
2022-09-17T23:24:06.498Z,1.92
2022-09-17T23:26:33.953Z,1.88
2022-09-17T23:29:05.328Z,1.45
2022-09-17T23:31:34.762Z,1.40
2022-09-17T23:34:02.170Z,1.55
2022-09-17T23:36:31.757Z,1.45
2022-09-17T23:39:02.206Z,1.63
2022-09-17T23:41:32.435Z,1.35
2022-09-17T23:44:02.677Z,1.20
2022-09-17T23:46:34.414Z,1.20
2022-09-17T23:49:03.264Z,1.38
2022-09-17T23:51:33.693Z,1.58
2022-09-17T23:54:00.995Z,1.40
2022-09-17T23:56:29.109Z,1.63
2022-09-17T23:58:59.707Z,1.50
